Time;durP1;ratioP1;P1;durP2;ratioP2;P2;SDS_P1;SDS_P2;PMS_P1;PMS_P2;Temp;Humidity;BMP_temperature;BMP_pressure;BME280_temperature;BME280_humidity;BME280_pressure;Samples;Min_cycle;Max_cycle;Signal;HPM_P1;HPM_P2
2023/11/15 00:00:06;;;;;;;14.52;2.40;;;;;;;;;;5036341;28;20045;-50
2023/11/15 00:02:33;;;;;;;12.40;1.90;;;;;;;;;;5037803;28;20615;-52
2023/11/15 00:05:02;;;;;;;16.27;2.67;;;;;;;;;;5038123;28;20049;-52
2023/11/15 00:07:29;;;;;;;12.13;2.10;;;;;;;;;;5039393;28;20045;-52
2023/11/15 00:09:55;;;;;;;10.23;2.08;;;;;;;;;;5036017;28;20136;-51
2023/11/15 00:12:22;;;;;;;10.13;1.77;;;;;;;;;;5036985;28;20131;-51
2023/11/15 00:14:48;;;;;;;6.90;1.25;;;;;;;;;;5036928;28;20049;-52
2023/11/15 00:17:15;;;;;;;14.10;2.50;;;;;;;;;;5017851;28;20053;-53
2023/11/15 00:19:45;;;;;;;18.73;2.65;;;;;;;;;;5026752;28;20076;-53
2023/11/15 00:22:14;;;;;;;9.68;1.92;;;;;;;;;;5023649;28;20634;-51
2023/11/15 00:24:41;;;;;;;9.07;2.05;;;;;;;;;;5022667;28;20455;-52
2023/11/15 00:27:08;;;;;;;10.10;2.08;;;;;;;;;;5020987;28;20153;-53
2023/11/15 00:29:35;;;;;;;8.18;1.50;;;;;;;;;;5023715;28;20069;-51
2023/11/15 00:32:01;;;;;;;12.50;1.90;;;;;;;;;;5022106;28;20037;-52
2023/11/15 00:34:27;;;;;;;5.60;1.13;;;;;;;;;;5021383;28;20393;-51
2023/11/15 00:36:54;;;;;;;12.88;1.45;;;;;;;;;;5025220;28;20050;-52
2023/11/15 00:39:25;;;;;;;8.27;1.50;;;;;;;;;;5019374;28;20148;-50
2023/11/15 00:41:51;;;;;;;10.73;1.67;;;;;;;;;;5023896;28;20082;-53
2023/11/15 00:44:17;;;;;;;13.05;2.08;;;;;;;;;;5021660;28;20056;-53
2023/11/15 00:46:44;;;;;;;8.23;1.20;;;;;;;;;;5018606;28;20056;-51
2023/11/15 00:49:11;;;;;;;9.63;2.10;;;;;;;;;;5021746;28;20038;-54
2023/11/15 00:51:37;;;;;;;12.15;2.03;;;;;;;;;;5022970;28;20042;-52
2023/11/15 00:54:06;;;;;;;13.35;1.83;;;;;;;;;;5025653;28;20515;-53
2023/11/15 00:56:32;;;;;;;10.15;1.50;;;;;;;;;;5021318;28;20100;-53
2023/11/15 00:58:59;;;;;;;11.77;2.83;;;;;;;;;;5022124;28;20096;-51
2023/11/15 01:01:27;;;;;;;10.65;1.33;;;;;;;;;;5022376;28;20584;-53
2023/11/15 01:03:57;;;;;;;5.38;1.20;;;;;;;;;;5020859;28;20041;-52
2023/11/15 01:06:25;;;;;;;8.13;1.25;;;;;;;;;;5028588;28;20053;-51
2023/11/15 01:08:52;;;;;;;9.27;1.50;;;;;;;;;;5019867;28;20045;-52
2023/11/15 01:11:19;;;;;;;10.00;1.63;;;;;;;;;;5027939;28;20053;-53
2023/11/15 01:13:46;;;;;;;14.63;1.90;;;;;;;;;;5019932;28;20049;-51
2023/11/15 01:16:13;;;;;;;7.22;1.27;;;;;;;;;;5024523;28;20137;-52
2023/11/15 01:18:39;;;;;;;7.22;1.67;;;;;;;;;;5018992;28;20049;-53
2023/11/15 01:21:08;;;;;;;14.13;2.13;;;;;;;;;;5018360;28;20045;-51
2023/11/15 01:23:35;;;;;;;14.25;2.28;;;;;;;;;;5026456;28;20049;-50
2023/11/15 01:26:02;;;;;;;9.88;1.73;;;;;;;;;;5022174;28;20395;-51
2023/11/15 01:28:28;;;;;;;10.40;3.08;;;;;;;;;;5023111;28;20123;-51
2023/11/15 01:30:55;;;;;;;11.65;1.38;;;;;;;;;;5020932;28;20073;-53
2023/11/15 01:33:21;;;;;;;13.38;1.52;;;;;;;;;;5021683;28;20112;-53
2023/11/15 01:35:48;;;;;;;14.20;2.10;;;;;;;;;;5017020;28;20692;-50
2023/11/15 01:38:16;;;;;;;7.75;1.35;;;;;;;;;;5020038;28;20431;-53
2023/11/15 01:40:43;;;;;;;6.28;1.40;;;;;;;;;;5020648;28;20060;-52
2023/11/15 01:43:10;;;;;;;14.98;1.63;;;;;;;;;;5024646;28;20073;-51
2023/11/15 01:45:37;;;;;;;14.00;1.85;;;;;;;;;;5019709;28;20053;-58
2023/11/15 01:48:03;;;;;;;15.38;2.17;;;;;;;;;;5022018;28;20131;-53
2023/11/15 01:50:30;;;;;;;6.97;1.77;;;;;;;;;;5025656;28;20046;-53
2023/11/15 01:52:58;;;;;;;5.63;1.35;;;;;;;;;;5032400;28;20435;-52
2023/11/15 01:55:24;;;;;;;12.75;2.33;;;;;;;;;;5015110;28;20045;-53
2023/11/15 01:57:52;;;;;;;8.00;1.50;;;;;;;;;;5023852;28;20147;-52
2023/11/15 02:00:19;;;;;;;16.58;1.80;;;;;;;;;;5019692;28;20053;-53
2023/11/15 02:02:45;;;;;;;11.52;1.77;;;;;;;;;;5021761;28;20216;-51
2023/11/15 02:05:13;;;;;;;13.98;1.73;;;;;;;;;;5019366;28;20180;-51
2023/11/15 02:07:41;;;;;;;16.10;1.75;;;;;;;;;;5026556;28;20092;-50
2023/11/15 02:10:09;;;;;;;15.63;1.75;;;;;;;;;;5021556;28;20799;-50
2023/11/15 02:12:35;;;;;;;9.55;1.55;;;;;;;;;;5015519;28;20050;-52
2023/11/15 02:15:01;;;;;;;9.82;2.22;;;;;;;;;;5018660;28;20640;-52
2023/11/15 02:17:28;;;;;;;9.80;2.30;;;;;;;;;;5037873;28;20049;-53
2023/11/15 02:19:55;;;;;;;12.23;2.28;;;;;;;;;;5041215;28;20127;-53
2023/11/15 02:22:21;;;;;;;8.32;1.77;;;;;;;;;;5037572;28;20363;-54
2023/11/15 02:24:48;;;;;;;9.85;1.83;;;;;;;;;;5040110;28;20068;-51
2023/11/15 02:27:15;;;;;;;10.23;1.52;;;;;;;;;;5039343;28;20124;-52
2023/11/15 02:29:41;;;;;;;9.40;1.58;;;;;;;;;;5037931;28;20071;-53
2023/11/15 02:32:09;;;;;;;15.88;1.80;;;;;;;;;;5045215;28;20040;-53
2023/11/15 02:34:36;;;;;;;18.13;2.40;;;;;;;;;;5041472;28;20130;-53
2023/11/15 02:37:02;;;;;;;11.45;1.50;;;;;;;;;;5050218;28;20493;-51
2023/11/15 02:39:28;;;;;;;9.98;1.77;;;;;;;;;;5042021;28;20053;-53
2023/11/15 02:41:55;;;;;;;9.27;1.77;;;;;;;;;;5041256;28;20076;-54
2023/11/15 02:44:21;;;;;;;8.57;1.60;;;;;;;;;;5037796;28;20466;-52
2023/11/15 02:46:48;;;;;;;9.90;2.08;;;;;;;;;;5042600;28;22420;-53
2023/11/15 02:49:14;;;;;;;7.88;1.60;;;;;;;;;;5040272;28;20127;-51
2023/11/15 02:51:40;;;;;;;13.38;1.60;;;;;;;;;;5039551;28;22886;-53
2023/11/15 02:54:07;;;;;;;8.23;1.35;;;;;;;;;;5041528;28;20041;-52
2023/11/15 02:56:33;;;;;;;14.43;1.77;;;;;;;;;;5034344;28;20118;-55
2023/11/15 02:59:00;;;;;;;8.48;1.48;;;;;;;;;;5037669;28;20053;-52
2023/11/15 03:01:26;;;;;;;12.02;1.42;;;;;;;;;;5043039;28;20148;-53
2023/11/15 03:03:53;;;;;;;10.60;2.08;;;;;;;;;;5037062;28;20530;-53
2023/11/15 03:06:19;;;;;;;10.70;1.52;;;;;;;;;;5035886;28;20037;-54
2023/11/15 03:08:47;;;;;;;8.60;1.40;;;;;;;;;;5038721;28;20049;-53
2023/11/15 03:11:13;;;;;;;11.15;1.35;;;;;;;;;;5039110;28;20045;-53
2023/11/15 03:13:40;;;;;;;9.23;1.42;;;;;;;;;;5038122;28;20057;-53
2023/11/15 03:16:06;;;;;;;13.07;1.85;;;;;;;;;;5038029;28;20037;-54
2023/11/15 03:18:33;;;;;;;9.57;1.80;;;;;;;;;;5042087;28;20142;-53
2023/11/15 03:20:59;;;;;;;8.23;1.17;;;;;;;;;;5039405;28;20052;-53
2023/11/15 03:23:26;;;;;;;12.57;1.60;;;;;;;;;;5039757;28;20053;-51
2023/11/15 03:25:52;;;;;;;10.65;1.60;;;;;;;;;;5038680;28;20064;-53
2023/11/15 03:28:19;;;;;;;5.38;1.27;;;;;;;;;;5043696;28;20184;-55
2023/11/15 03:30:45;;;;;;;10.52;1.80;;;;;;;;;;5047812;28;20128;-54
2023/11/15 03:33:11;;;;;;;9.55;1.60;;;;;;;;;;5038263;28;20590;-55
2023/11/15 03:35:38;;;;;;;11.48;1.55;;;;;;;;;;5049870;28;20709;-55
2023/11/15 03:38:04;;;;;;;7.15;1.15;;;;;;;;;;5035357;28;20124;-52
2023/11/15 03:40:31;;;;;;;11.55;1.70;;;;;;;;;;5041474;28;20040;-54
2023/11/15 03:42:57;;;;;;;9.52;1.77;;;;;;;;;;5042383;28;20055;-53
2023/11/15 03:45:24;;;;;;;10.18;1.50;;;;;;;;;;5039142;28;20125;-53
2023/11/15 03:47:50;;;;;;;7.97;1.75;;;;;;;;;;5039175;28;20045;-51
2023/11/15 03:50:18;;;;;;;14.27;1.88;;;;;;;;;;5040111;28;20051;-52
2023/11/15 03:52:44;;;;;;;14.07;1.73;;;;;;;;;;5040431;28;20047;-52
2023/11/15 03:55:11;;;;;;;12.23;1.60;;;;;;;;;;5038076;28;20057;-51
2023/11/15 03:57:38;;;;;;;9.18;1.77;;;;;;;;;;5035363;28;20056;-51
2023/11/15 04:00:06;;;;;;;6.97;1.40;;;;;;;;;;5040127;28;20048;-53
2023/11/15 04:02:33;;;;;;;10.95;1.80;;;;;;;;;;5037839;28;20052;-53
2023/11/15 04:04:59;;;;;;;7.18;1.20;;;;;;;;;;5038150;28;20774;-50
2023/11/15 04:07:26;;;;;;;9.38;1.95;;;;;;;;;;5037916;28;20045;-54
2023/11/15 04:09:53;;;;;;;14.95;1.55;;;;;;;;;;5035648;28;20049;-51
2023/11/15 04:12:20;;;;;;;4.63;1.20;;;;;;;;;;5038403;28;20060;-51
2023/11/15 04:14:46;;;;;;;12.63;1.77;;;;;;;;;;5036537;28;20325;-54
2023/11/15 04:17:14;;;;;;;8.13;1.70;;;;;;;;;;5039049;28;20117;-51
2023/11/15 04:19:40;;;;;;;12.27;2.88;;;;;;;;;;5038783;28;20700;-53
2023/11/15 04:22:06;;;;;;;14.50;1.65;;;;;;;;;;5037534;28;20049;-52
2023/11/15 04:24:39;;;;;;;5.28;1.40;;;;;;;;;;5036114;28;20045;-54
2023/11/15 04:27:07;;;;;;;4.38;1.23;;;;;;;;;;5037127;28;20049;-52
2023/11/15 04:29:34;;;;;;;11.93;1.85;;;;;;;;;;5042815;28;20055;-53
2023/11/15 04:32:00;;;;;;;13.85;1.40;;;;;;;;;;5049001;28;20603;-53
2023/11/15 04:34:27;;;;;;;9.85;1.40;;;;;;;;;;5046306;28;20055;-51
2023/11/15 04:36:53;;;;;;;13.95;1.33;;;;;;;;;;5029646;28;20672;-51
2023/11/15 04:39:19;;;;;;;6.72;1.02;;;;;;;;;;5045245;28;20061;-52
2023/11/15 04:41:47;;;;;;;13.23;1.48;;;;;;;;;;5045537;28;20130;-51
2023/11/15 04:44:14;;;;;;;6.60;1.15;;;;;;;;;;5039491;28;20055;-54
2023/11/15 04:46:40;;;;;;;7.90;1.50;;;;;;;;;;5038552;28;20077;-50
2023/11/15 04:49:09;;;;;;;10.82;1.45;;;;;;;;;;5041216;28;20040;-52
2023/11/15 04:51:37;;;;;;;6.78;1.25;;;;;;;;;;5034272;28;20161;-51
2023/11/15 04:54:05;;;;;;;9.27;1.50;;;;;;;;;;5037902;28;20060;-50
2023/11/15 04:56:35;;;;;;;4.93;1.00;;;;;;;;;;5036552;28;20729;-50
2023/11/15 04:59:07;;;;;;;8.65;1.42;;;;;;;;;;5039289;28;20080;-53
2023/11/15 05:01:34;;;;;;;6.10;0.90;;;;;;;;;;5038704;28;20079;-52
2023/11/15 05:04:00;;;;;;;7.95;1.40;;;;;;;;;;5040856;28;20076;-55
2023/11/15 05:06:28;;;;;;;8.43;1.02;;;;;;;;;;5025220;28;20136;-52
2023/11/15 05:08:55;;;;;;;11.95;1.63;;;;;;;;;;5042581;28;20045;-52
2023/11/15 05:11:21;;;;;;;10.93;1.20;;;;;;;;;;5040005;28;20611;-53
2023/11/15 05:13:48;;;;;;;9.80;1.38;;;;;;;;;;5042469;28;20052;-53
2023/11/15 05:16:14;;;;;;;10.13;1.38;;;;;;;;;;5041875;28;20073;-54
2023/11/15 05:18:41;;;;;;;7.70;1.40;;;;;;;;;;5044338;28;20107;-52
2023/11/15 05:21:07;;;;;;;8.27;1.33;;;;;;;;;;5040254;28;20532;-52
2023/11/15 05:23:34;;;;;;;9.77;1.55;;;;;;;;;;5044602;28;20568;-53
2023/11/15 05:26:01;;;;;;;13.68;1.42;;;;;;;;;;5035330;28;20669;-50
2023/11/15 05:28:27;;;;;;;11.48;0.95;;;;;;;;;;5045350;28;20049;-54
2023/11/15 05:30:54;;;;;;;6.32;1.48;;;;;;;;;;5046381;28;20136;-51
2023/11/15 05:33:21;;;;;;;10.38;1.60;;;;;;;;;;5039882;28;20061;-54
2023/11/15 05:35:47;;;;;;;13.48;1.17;;;;;;;;;;5041014;28;20114;-52
2023/11/15 05:38:14;;;;;;;10.45;1.40;;;;;;;;;;5043073;28;20107;-54
2023/11/15 05:40:40;;;;;;;9.00;1.00;;;;;;;;;;5040598;28;20262;-54
2023/11/15 05:43:07;;;;;;;5.43;1.13;;;;;;;;;;5043564;28;20072;-51
2023/11/15 05:45:33;;;;;;;8.15;1.60;;;;;;;;;;5036449;28;20056;-52
2023/11/15 05:48:00;;;;;;;7.72;1.10;;;;;;;;;;5039820;28;20057;-54
2023/11/15 05:50:26;;;;;;;9.50;1.05;;;;;;;;;;5045773;28;20088;-53
2023/11/15 05:52:53;;;;;;;8.02;1.58;;;;;;;;;;5042610;28;20052;-54
2023/11/15 05:55:19;;;;;;;6.68;1.27;;;;;;;;;;5045878;28;20037;-53
2023/11/15 05:57:46;;;;;;;5.25;1.02;;;;;;;;;;5042483;28;20049;-51
2023/11/15 06:00:20;;;;;;;11.65;1.42;;;;;;;;;;5036120;28;20049;-52
2023/11/15 06:02:49;;;;;;;9.60;1.67;;;;;;;;;;5040576;28;20564;-52
2023/11/15 06:05:18;;;;;;;8.27;1.67;;;;;;;;;;5040704;28;20052;-52
2023/11/15 06:07:45;;;;;;;7.18;1.10;;;;;;;;;;5041081;28;20568;-52
2023/11/15 06:10:11;;;;;;;7.50;1.40;;;;;;;;;;5041703;28;20155;-53
2023/11/15 06:12:41;;;;;;;10.25;1.38;;;;;;;;;;5042169;28;20140;-52
2023/11/15 06:15:11;;;;;;;5.55;1.10;;;;;;;;;;5040142;28;20154;-54
2023/11/15 06:17:41;;;;;;;11.30;1.85;;;;;;;;;;5035400;28;20045;-52
2023/11/15 06:20:09;;;;;;;12.35;1.65;;;;;;;;;;5040076;28;20511;-53
2023/11/15 06:22:38;;;;;;;6.70;1.40;;;;;;;;;;5046201;28;20052;-54
2023/11/15 06:25:08;;;;;;;8.18;1.35;;;;;;;;;;5041519;28;20103;-51
2023/11/15 06:27:37;;;;;;;9.60;1.40;;;;;;;;;;5038658;28;20061;-51
2023/11/15 06:30:04;;;;;;;10.48;1.35;;;;;;;;;;5044167;28;20057;-52
2023/11/15 06:32:31;;;;;;;6.25;1.10;;;;;;;;;;5035584;28;20049;-50
2023/11/15 06:34:58;;;;;;;12.48;1.20;;;;;;;;;;5040430;28;20053;-53
2023/11/15 06:37:24;;;;;;;9.75;1.20;;;;;;;;;;5049771;28;20064;-53
2023/11/15 06:39:52;;;;;;;8.32;1.58;;;;;;;;;;5039343;28;20068;-51
2023/11/15 06:42:21;;;;;;;6.63;1.20;;;;;;;;;;5048757;28;20761;-53
2023/11/15 06:44:47;;;;;;;10.55;1.60;;;;;;;;;;5041576;28;20136;-51
2023/11/15 06:47:14;;;;;;;6.80;1.30;;;;;;;;;;5041219;28;20053;-51
2023/11/15 06:49:44;;;;;;;8.48;1.10;;;;;;;;;;5039945;28;20036;-53
2023/11/15 06:52:10;;;;;;;8.77;1.33;;;;;;;;;;5041906;28;20091;-52
2023/11/15 06:54:38;;;;;;;3.03;1.00;;;;;;;;;;5042776;28;20115;-52
2023/11/15 06:57:06;;;;;;;8.07;1.40;;;;;;;;;;5039438;28;20083;-50
2023/11/15 06:59:33;;;;;;;6.95;1.08;;;;;;;;;;5040944;28;20053;-51
2023/11/15 07:02:00;;;;;;;11.07;1.50;;;;;;;;;;5039537;28;20115;-53
2023/11/15 07:04:26;;;;;;;6.72;1.38;;;;;;;;;;5046590;28;20043;-53
2023/11/15 07:06:53;;;;;;;12.65;1.88;;;;;;;;;;5039585;28;20403;-50
2023/11/15 07:09:20;;;;;;;9.40;1.50;;;;;;;;;;5040809;28;20075;-52
2023/11/15 07:11:46;;;;;;;8.23;1.92;;;;;;;;;;5038189;28;20068;-54
2023/11/15 07:14:16;;;;;;;9.55;1.92;;;;;;;;;;5026051;28;20237;-54
2023/11/15 07:16:55;;;;;;;8.82;1.15;;;;;;;;;;5038119;28;20072;-52
2023/11/15 07:19:24;;;;;;;10.73;1.60;;;;;;;;;;5033984;28;20558;-51
2023/11/15 07:21:52;;;;;;;8.68;2.10;;;;;;;;;;5038887;28;20476;-53
2023/11/15 07:24:25;;;;;;;10.68;2.28;;;;;;;;;;5040715;28;20141;-53
2023/11/15 07:26:51;;;;;;;8.32;1.05;;;;;;;;;;5044091;28;20693;-53
2023/11/15 07:29:21;;;;;;;14.95;2.50;;;;;;;;;;5039673;28;20079;-54
2023/11/15 07:31:52;;;;;;;5.63;1.55;;;;;;;;;;5037102;28;20045;-53
2023/11/15 07:34:22;;;;;;;13.65;1.73;;;;;;;;;;5039913;28;20037;-54
2023/11/15 07:36:48;;;;;;;9.15;1.40;;;;;;;;;;5030923;28;20040;-52
2023/11/15 07:39:15;;;;;;;8.57;1.23;;;;;;;;;;5032792;28;20102;-53
2023/11/15 07:41:42;;;;;;;7.03;1.17;;;;;;;;;;5037832;28;20044;-51
2023/11/15 07:44:09;;;;;;;16.83;2.17;;;;;;;;;;5039677;28;20053;-51
2023/11/15 07:46:36;;;;;;;11.00;2.00;;;;;;;;;;5041341;28;20068;-53
2023/11/15 07:49:02;;;;;;;6.65;1.20;;;;;;;;;;5038077;28;20472;-51
2023/11/15 07:51:29;;;;;;;9.68;1.88;;;;;;;;;;5040011;28;20474;-54
2023/11/15 07:53:55;;;;;;;10.45;1.38;;;;;;;;;;5037946;28;20049;-51
2023/11/15 07:56:23;;;;;;;9.57;1.55;;;;;;;;;;5037922;28;20127;-53
2023/11/15 07:58:50;;;;;;;10.50;1.65;;;;;;;;;;5040534;28;20036;-52
2023/11/15 08:01:16;;;;;;;16.20;1.83;;;;;;;;;;5038031;28;20049;-53
2023/11/15 08:03:43;;;;;;;9.70;1.33;;;;;;;;;;5035217;28;20724;-54
2023/11/15 08:06:10;;;;;;;13.48;1.95;;;;;;;;;;5042835;28;20427;-52
2023/11/15 08:08:37;;;;;;;7.10;1.23;;;;;;;;;;5037705;28;20049;-51
2023/11/15 08:11:04;;;;;;;10.27;1.13;;;;;;;;;;5034811;28;20060;-54
2023/11/15 08:13:30;;;;;;;7.07;1.60;;;;;;;;;;5038459;28;20458;-49
2023/11/15 08:15:57;;;;;;;7.72;1.33;;;;;;;;;;5036308;28;20049;-50
2023/11/15 08:18:23;;;;;;;8.90;1.38;;;;;;;;;;5037988;28;20059;-51
2023/11/15 08:20:50;;;;;;;7.72;1.40;;;;;;;;;;5038422;28;20052;-50
2023/11/15 08:23:16;;;;;;;17.50;2.47;;;;;;;;;;5036901;28;20522;-51
2023/11/15 08:25:48;;;;;;;10.93;1.50;;;;;;;;;;5039335;28;20064;-53
2023/11/15 08:28:14;;;;;;;9.05;1.52;;;;;;;;;;5033922;28;20145;-52
2023/11/15 08:30:41;;;;;;;12.05;1.70;;;;;;;;;;5036614;28;20095;-53
2023/11/15 08:33:07;;;;;;;6.20;1.08;;;;;;;;;;5036004;28;20045;-52
2023/11/15 08:35:34;;;;;;;5.40;1.30;;;;;;;;;;5040031;28;20067;-52
2023/11/15 08:38:00;;;;;;;12.57;1.60;;;;;;;;;;5040453;28;20041;-52
2023/11/15 08:40:27;;;;;;;10.70;1.85;;;;;;;;;;5041624;28;20095;-53
2023/11/15 08:42:55;;;;;;;6.82;1.05;;;;;;;;;;5043552;28;20064;-50
2023/11/15 08:45:22;;;;;;;11.52;2.03;;;;;;;;;;5048332;28;20827;-53
2023/11/15 08:47:48;;;;;;;10.57;1.90;;;;;;;;;;5049076;28;20073;-51
2023/11/15 08:50:15;;;;;;;9.88;1.40;;;;;;;;;;5045809;28;20132;-53
2023/11/15 08:52:42;;;;;;;10.23;1.35;;;;;;;;;;5044442;28;20057;-52
2023/11/15 08:55:11;;;;;;;8.43;1.40;;;;;;;;;;5047122;28;20068;-53
2023/11/15 08:57:39;;;;;;;12.82;1.48;;;;;;;;;;5025043;28;20064;-50
2023/11/15 09:00:12;;;;;;;8.80;1.75;;;;;;;;;;5043318;28;20376;-49
2023/11/15 09:02:41;;;;;;;15.77;1.73;;;;;;;;;;5045063;28;20051;-53
2023/11/15 09:05:08;;;;;;;4.55;1.08;;;;;;;;;;5045772;28;20044;-55
2023/11/15 09:07:34;;;;;;;11.90;2.47;;;;;;;;;;5042571;28;20063;-51
2023/11/15 09:10:01;;;;;;;7.72;1.50;;;;;;;;;;5041571;28;20095;-53
2023/11/15 09:12:30;;;;;;;7.15;1.20;;;;;;;;;;5040139;28;20044;-51
2023/11/15 09:14:58;;;;;;;13.68;2.05;;;;;;;;;;5038309;28;20684;-52
2023/11/15 09:17:24;;;;;;;7.70;1.63;;;;;;;;;;5041924;28;20149;-54
2023/11/15 09:19:56;;;;;;;12.13;1.63;;;;;;;;;;5044348;28;20207;-53
2023/11/15 09:22:22;;;;;;;14.25;1.58;;;;;;;;;;5040826;28;20152;-54
2023/11/15 09:24:53;;;;;;;12.00;1.85;;;;;;;;;;5043195;28;21150;-52
2023/11/15 09:27:32;;;;;;;9.85;1.83;;;;;;;;;;5040358;28;20060;-55
2023/11/15 09:29:59;;;;;;;8.77;1.90;;;;;;;;;;5043241;28;20056;-51
2023/11/15 09:32:26;;;;;;;10.25;1.50;;;;;;;;;;5047029;28;20047;-52
2023/11/15 09:34:52;;;;;;;9.20;1.77;;;;;;;;;;5025894;28;20055;-55
2023/11/15 09:37:19;;;;;;;9.60;1.30;;;;;;;;;;5041138;28;20143;-54
2023/11/15 09:39:45;;;;;;;11.20;1.40;;;;;;;;;;5037576;28;20139;-51
2023/11/15 09:42:19;;;;;;;13.25;2.03;;;;;;;;;;5048329;28;20500;-54
2023/11/15 09:44:46;;;;;;;11.02;1.65;;;;;;;;;;5041960;28;20045;-54
2023/11/15 09:47:13;;;;;;;6.35;1.20;;;;;;;;;;5043440;28;20044;-54
2023/11/15 09:49:40;;;;;;;9.50;1.52;;;;;;;;;;5041841;28;20148;-53
2023/11/15 09:52:11;;;;;;;8.50;0.90;;;;;;;;;;5043581;28;20075;-52
2023/11/15 09:54:42;;;;;;;6.78;1.10;;;;;;;;;;5041078;28;20617;-52
2023/11/15 09:57:11;;;;;;;6.55;1.30;;;;;;;;;;5040475;28;20041;-53
2023/11/15 09:59:40;;;;;;;10.32;1.58;;;;;;;;;;5043579;28;20057;-54
2023/11/15 10:02:13;;;;;;;10.40;2.00;;;;;;;;;;5039415;28;20626;-54
2023/11/15 10:04:39;;;;;;;10.95;1.40;;;;;;;;;;5023517;28;20041;-51
2023/11/15 10:07:07;;;;;;;9.15;1.77;;;;;;;;;;5040923;28;20471;-51
2023/11/15 10:09:36;;;;;;;12.38;1.60;;;;;;;;;;5037844;28;20040;-54
2023/11/15 10:12:03;;;;;;;10.27;1.27;;;;;;;;;;5038497;28;20052;-54
2023/11/15 10:14:32;;;;;;;11.48;1.23;;;;;;;;;;5040011;28;20511;-54
2023/11/15 10:17:00;;;;;;;10.95;2.00;;;;;;;;;;5039627;28;20136;-53
2023/11/15 10:19:27;;;;;;;13.10;1.95;;;;;;;;;;5043796;28;20103;-52
2023/11/15 10:22:04;;;;;;;10.55;1.15;;;;;;;;;;5045170;28;20053;-53
2023/11/15 10:24:33;;;;;;;9.55;1.63;;;;;;;;;;5037233;28;20403;-54
2023/11/15 10:27:14;;;;;;;8.45;1.50;;;;;;;;;;5039929;28;20108;-52
2023/11/15 10:29:47;;;;;;;13.60;1.48;;;;;;;;;;5041990;28;20614;-53
2023/11/15 10:32:19;;;;;;;8.48;1.63;;;;;;;;;;5036790;28;20072;-50
2023/11/15 10:34:51;;;;;;;7.50;1.20;;;;;;;;;;5039008;28;20068;-53
2023/11/15 10:37:18;;;;;;;9.15;1.23;;;;;;;;;;5038462;28;20124;-54
2023/11/15 10:39:44;;;;;;;11.23;1.90;;;;;;;;;;5038118;28;20057;-52
2023/11/15 10:42:14;;;;;;;8.68;1.52;;;;;;;;;;5040628;28;20104;-52
2023/11/15 10:44:41;;;;;;;7.25;1.17;;;;;;;;;;5040174;28;20687;-54
2023/11/15 10:47:08;;;;;;;7.72;1.00;;;;;;;;;;5041842;28;20085;-53
2023/11/15 10:49:38;;;;;;;5.50;1.10;;;;;;;;;;5038298;28;20111;-50
2023/11/15 10:52:05;;;;;;;12.15;1.20;;;;;;;;;;5040249;28;20048;-53
2023/11/15 10:54:33;;;;;;;7.63;1.17;;;;;;;;;;5037825;28;20084;-51
2023/11/15 10:57:04;;;;;;;5.10;0.90;;;;;;;;;;5036846;28;20072;-50
2023/11/15 10:59:34;;;;;;;8.80;1.27;;;;;;;;;;5041718;28;20422;-51
2023/11/15 11:02:06;;;;;;;8.52;1.25;;;;;;;;;;5038599;28;20119;-52
2023/11/15 11:04:33;;;;;;;9.32;1.48;;;;;;;;;;5035877;28;20092;-51
2023/11/15 11:07:11;;;;;;;6.25;1.30;;;;;;;;;;5037360;28;20510;-53
2023/11/15 11:09:58;;;;;;;9.32;1.40;;;;;;;;;;5035363;28;20052;-54
2023/11/15 11:12:25;;;;;;;12.05;2.60;;;;;;;;;;5041612;28;20049;-53
2023/11/15 11:15:12;;;;;;;6.38;1.10;;;;;;;;;;5011860;28;20614;-52
2023/11/15 11:17:42;;;;;;;6.43;1.08;;;;;;;;;;5033443;28;20045;-53
2023/11/15 11:20:28;;;;;;;5.05;1.08;;;;;;;;;;5038205;28;20049;-52
2023/11/15 11:23:07;;;;;;;6.38;1.20;;;;;;;;;;5039120;28;20048;-53
2023/11/15 11:25:38;;;;;;;8.00;1.30;;;;;;;;;;5025630;28;20068;-53
2023/11/15 11:28:06;;;;;;;8.50;1.42;;;;;;;;;;5033303;28;20055;-52
2023/11/15 11:30:33;;;;;;;6.78;1.00;;;;;;;;;;5043514;28;20044;-51
2023/11/15 11:33:10;;;;;;;7.35;1.33;;;;;;;;;;5039631;28;20415;-52
2023/11/15 11:35:40;;;;;;;7.57;1.10;;;;;;;;;;5036019;28;20168;-52
2023/11/15 11:38:11;;;;;;;11.38;1.75;;;;;;;;;;5036224;28;20057;-52
2023/11/15 11:40:42;;;;;;;6.65;1.13;;;;;;;;;;5041012;28;20486;-54
2023/11/15 11:43:16;;;;;;;5.30;1.13;;;;;;;;;;5020234;28;20081;-52
2023/11/15 11:45:43;;;;;;;8.60;1.35;;;;;;;;;;5040039;28;20091;-54
2023/11/15 11:48:20;;;;;;;9.73;1.10;;;;;;;;;;5039126;28;20402;-55
2023/11/15 11:50:58;;;;;;;5.65;0.95;;;;;;;;;;5040764;28;20044;-54
2023/11/15 11:53:25;;;;;;;8.90;1.33;;;;;;;;;;5038827;28;20055;-52
2023/11/15 11:55:54;;;;;;;8.27;1.58;;;;;;;;;;5040449;28;20049;-53
2023/11/15 11:58:22;;;;;;;18.10;2.95;;;;;;;;;;5029924;28;20040;-52
2023/11/15 12:00:49;;;;;;;9.60;1.10;;;;;;;;;;5040284;28;20064;-53
2023/11/15 12:03:16;;;;;;;4.72;1.48;;;;;;;;;;5039370;28;20175;-52
2023/11/15 12:05:44;;;;;;;6.32;1.10;;;;;;;;;;5025428;28;20094;-53
2023/11/15 12:08:13;;;;;;;8.02;1.27;;;;;;;;;;5040123;28;20049;-50
2023/11/15 12:10:40;;;;;;;6.70;1.25;;;;;;;;;;5048341;28;20515;-52
2023/11/15 12:13:10;;;;;;;9.70;1.20;;;;;;;;;;5033316;28;20080;-51
2023/11/15 12:15:38;;;;;;;7.57;1.90;;;;;;;;;;5038340;28;20145;-54
2023/11/15 12:18:06;;;;;;;6.25;1.10;;;;;;;;;;5036996;28;20048;-53
2023/11/15 12:20:40;;;;;;;5.90;0.88;;;;;;;;;;5041545;28;20041;-53
2023/11/15 12:23:10;;;;;;;8.23;1.38;;;;;;;;;;5038874;28;20045;-51
2023/11/15 12:25:45;;;;;;;8.65;1.13;;;;;;;;;;5032347;28;20137;-51
2023/11/15 12:28:12;;;;;;;7.90;1.33;;;;;;;;;;5032662;28;20094;-53
2023/11/15 12:30:39;;;;;;;10.07;1.20;;;;;;;;;;5039093;28;20053;-51
2023/11/15 12:33:05;;;;;;;5.55;1.00;;;;;;;;;;5035074;28;20509;-51
2023/11/15 12:35:33;;;;;;;13.35;1.40;;;;;;;;;;5038102;28;20056;-52
2023/11/15 12:38:04;;;;;;;6.78;1.17;;;;;;;;;;5041353;28;21562;-53
2023/11/15 12:40:32;;;;;;;11.45;0.98;;;;;;;;;;5038561;28;20049;-52
2023/11/15 12:43:21;;;;;;;7.05;1.30;;;;;;;;;;5037740;28;20760;-52
2023/11/15 12:45:50;;;;;;;6.95;1.33;;;;;;;;;;5037618;28;20045;-55
2023/11/15 12:48:16;;;;;;;9.88;1.33;;;;;;;;;;5039277;28;20052;-54
2023/11/15 12:50:45;;;;;;;4.13;0.63;;;;;;;;;;5041652;28;20679;-52
2023/11/15 12:53:14;;;;;;;11.70;1.50;;;;;;;;;;5039118;28;20122;-56
2023/11/15 12:55:45;;;;;;;10.68;1.13;;;;;;;;;;5042520;28;20056;-55
2023/11/15 12:58:31;;;;;;;8.98;1.23;;;;;;;;;;5032984;28;20050;-51
2023/11/15 13:00:59;;;;;;;13.23;1.33;;;;;;;;;;5036936;28;20072;-54
2023/11/15 13:03:27;;;;;;;6.82;1.15;;;;;;;;;;5039858;28;20049;-57
2023/11/15 13:06:07;;;;;;;6.85;1.70;;;;;;;;;;5043080;28;20103;-54
2023/11/15 13:08:34;;;;;;;9.43;1.30;;;;;;;;;;5035562;28;20080;-55
2023/11/15 13:11:00;;;;;;;6.55;1.13;;;;;;;;;;5037324;28;20097;-53
2023/11/15 13:13:27;;;;;;;12.52;2.00;;;;;;;;;;5038824;28;20491;-53
2023/11/15 13:15:54;;;;;;;7.75;1.80;;;;;;;;;;5039019;28;20041;-53
2023/11/15 13:18:20;;;;;;;13.57;1.70;;;;;;;;;;5038058;28;20068;-55
2023/11/15 13:20:47;;;;;;;9.95;1.40;;;;;;;;;;5040552;28;20053;-53
2023/11/15 13:23:13;;;;;;;5.70;1.35;;;;;;;;;;5039399;28;20060;-53
2023/11/15 13:25:40;;;;;;;10.93;1.67;;;;;;;;;;5038005;28;20130;-55
2023/11/15 13:28:09;;;;;;;12.40;1.77;;;;;;;;;;5046232;28;20090;-52
2023/11/15 13:30:37;;;;;;;8.60;1.48;;;;;;;;;;5036692;28;20500;-54
2023/11/15 13:33:03;;;;;;;5.68;1.00;;;;;;;;;;5041334;28;20052;-51
2023/11/15 13:35:30;;;;;;;9.23;1.60;;;;;;;;;;5034031;28;20132;-55
2023/11/15 13:37:57;;;;;;;7.95;1.33;;;;;;;;;;5043897;28;20056;-53
2023/11/15 13:40:24;;;;;;;10.25;1.67;;;;;;;;;;5040904;28;22044;-54
2023/11/15 13:42:51;;;;;;;7.20;1.90;;;;;;;;;;5041776;28;20049;-52
2023/11/15 13:45:22;;;;;;;9.80;1.45;;;;;;;;;;5041432;28;20823;-54
2023/11/15 13:47:50;;;;;;;13.05;2.10;;;;;;;;;;5044537;28;20483;-52
2023/11/15 13:50:17;;;;;;;11.40;2.08;;;;;;;;;;5040897;28;20052;-55
2023/11/15 13:52:43;;;;;;;8.35;1.67;;;;;;;;;;5048872;28;20594;-54
2023/11/15 13:55:10;;;;;;;6.32;1.20;;;;;;;;;;5042858;28;20063;-53
2023/11/15 13:57:37;;;;;;;6.88;1.30;;;;;;;;;;5046704;28;20107;-54
2023/11/15 14:00:07;;;;;;;8.90;1.70;;;;;;;;;;5035953;28;20407;-53
2023/11/15 14:02:33;;;;;;;4.45;1.00;;;;;;;;;;5045347;28;20092;-53
2023/11/15 14:05:00;;;;;;;11.75;1.48;;;;;;;;;;5024434;28;20049;-54
2023/11/15 14:07:27;;;;;;;10.32;1.50;;;;;;;;;;5041865;28;20045;-50
2023/11/15 14:09:53;;;;;;;7.60;1.35;;;;;;;;;;5038580;28;20049;-54
2023/11/15 14:12:20;;;;;;;12.25;1.75;;;;;;;;;;5042373;28;20136;-52
2023/11/15 14:14:46;;;;;;;8.40;1.27;;;;;;;;;;5041387;28;20055;-50
2023/11/15 14:17:13;;;;;;;11.65;1.30;;;;;;;;;;5019750;28;20050;-52
2023/11/15 14:19:40;;;;;;;4.38;0.90;;;;;;;;;;5024770;28;20176;-50
2023/11/15 14:22:07;;;;;;;8.00;1.45;;;;;;;;;;5019925;28;20137;-51
2023/11/15 14:24:36;;;;;;;6.00;1.35;;;;;;;;;;5019662;28;20096;-51
2023/11/15 14:27:03;;;;;;;9.35;1.08;;;;;;;;;;5020810;28;20048;-52
2023/11/15 14:29:30;;;;;;;11.25;1.50;;;;;;;;;;5024046;28;20584;-51
2023/11/15 14:31:57;;;;;;;8.73;1.35;;;;;;;;;;5025568;28;20123;-50
2023/11/15 14:34:24;;;;;;;12.45;1.48;;;;;;;;;;5031921;28;20108;-52
2023/11/15 14:36:51;;;;;;;5.45;0.82;;;;;;;;;;5019874;28;20095;-52
2023/11/15 14:39:22;;;;;;;7.20;1.27;;;;;;;;;;5014503;28;20049;-51
2023/11/15 14:41:49;;;;;;;9.43;1.60;;;;;;;;;;5019282;28;20144;-51